createdAt,value
2023-05-12T00:00:34.261Z,14.20
2023-05-12T00:03:06.609Z,14.10
2023-05-12T00:05:38.697Z,14.10
2023-05-12T00:08:10.589Z,14.10
2023-05-12T00:10:42.450Z,14.00
2023-05-12T00:13:15.686Z,14.00
2023-05-12T00:15:47.474Z,14.00
2023-05-12T00:18:19.319Z,14.00
2023-05-12T00:20:51.207Z,14.00
2023-05-12T00:23:23.193Z,14.00
2023-05-12T00:25:54.768Z,13.90
2023-05-12T00:28:27.728Z,14.00
2023-05-12T00:31:01.794Z,13.90
2023-05-12T00:33:35.621Z,13.90
2023-05-12T00:36:08.715Z,13.90
2023-05-12T00:38:41.251Z,13.90
2023-05-12T00:41:12.904Z,13.90
2023-05-12T00:43:45.862Z,13.80
2023-05-12T00:46:18.231Z,13.80
2023-05-12T00:48:50.418Z,13.80
2023-05-12T00:51:22.352Z,13.80
2023-05-12T00:53:56.407Z,13.80
2023-05-12T00:56:28.469Z,13.80
2023-05-12T00:59:01.490Z,13.80
2023-05-12T01:01:33.285Z,13.90
2023-05-12T01:04:05.943Z,13.90
2023-05-12T01:06:49.548Z,13.80
2023-05-12T01:09:22.302Z,13.80
2023-05-12T01:11:53.906Z,13.80
2023-05-12T01:14:27.136Z,13.80
2023-05-12T01:17:04.012Z,13.80
2023-05-12T01:19:47.086Z,13.80
2023-05-12T01:22:19.923Z,13.70
2023-05-12T01:24:55.924Z,13.60
2023-05-12T01:27:30.359Z,13.50
2023-05-12T01:30:05.852Z,13.40
2023-05-12T01:32:39.369Z,13.40
2023-05-12T01:35:12.638Z,13.40
2023-05-12T01:37:44.410Z,13.50
2023-05-12T01:40:18.040Z,13.50
2023-05-12T01:42:51.369Z,13.50
2023-05-12T01:45:23.332Z,13.60
2023-05-12T01:47:55.199Z,13.60
2023-05-12T01:50:27.031Z,13.60
2023-05-12T01:52:58.920Z,13.60
2023-05-12T01:55:30.781Z,13.60
2023-05-12T01:58:03.960Z,13.60
2023-05-12T02:00:35.780Z,13.50
2023-05-12T02:03:07.788Z,13.50
2023-05-12T02:05:39.363Z,13.60
2023-05-12T02:08:11.221Z,13.50
2023-05-12T02:10:43.099Z,13.60
2023-05-12T02:13:16.349Z,13.50
2023-05-12T02:15:48.120Z,13.40
2023-05-12T02:18:20.053Z,13.40
2023-05-12T02:20:51.891Z,13.40
2023-05-12T02:23:23.858Z,13.40
2023-05-12T02:25:55.658Z,13.40
2023-05-12T02:28:28.677Z,13.40
2023-05-12T02:31:00.525Z,13.40
2023-05-12T02:33:32.445Z,13.50
2023-05-12T02:36:04.364Z,13.40
2023-05-12T02:38:36.367Z,13.40
2023-05-12T02:41:08.079Z,13.40
2023-05-12T02:43:41.032Z,13.40
2023-05-12T02:46:12.882Z,13.40
2023-05-12T02:48:44.705Z,13.40
2023-05-12T02:51:16.660Z,13.40
2023-05-12T02:53:48.461Z,13.40
2023-05-12T02:56:20.729Z,13.40
2023-05-12T02:58:53.709Z,13.40
2023-05-12T03:01:25.662Z,13.40
2023-05-12T03:03:57.481Z,13.40
2023-05-12T03:06:30.377Z,13.30
2023-05-12T03:09:02.228Z,13.40
2023-05-12T03:11:34.109Z,13.40
2023-05-12T03:14:07.264Z,13.40
2023-05-12T03:16:39.118Z,13.30
2023-05-12T03:19:11.162Z,13.30
2023-05-12T03:21:42.986Z,13.30
2023-05-12T03:24:14.944Z,13.30
2023-05-12T03:26:46.946Z,13.30
2023-05-12T03:29:20.184Z,13.30
2023-05-12T03:31:52.041Z,13.20
2023-05-12T03:34:23.985Z,13.20
2023-05-12T03:36:55.801Z,13.20
2023-05-12T03:39:27.796Z,13.20
2023-05-12T03:41:59.564Z,13.20
2023-05-12T03:44:32.506Z,13.20
2023-05-12T03:47:04.443Z,13.30
2023-05-12T03:49:36.136Z,13.30
2023-05-12T03:52:07.965Z,13.20
2023-05-12T03:54:39.860Z,13.20
2023-05-12T03:57:13.022Z,13.20
2023-05-12T03:59:46.470Z,13.20
2023-05-12T04:02:18.402Z,13.20
2023-05-12T04:04:50.219Z,13.20
2023-05-12T04:07:22.080Z,13.20
2023-05-12T04:09:54.005Z,13.20
2023-05-12T04:12:25.805Z,13.20
2023-05-12T04:14:59.408Z,13.20
2023-05-12T04:17:31.864Z,13.10
2023-05-12T04:20:04.179Z,13.10
2023-05-12T04:22:35.711Z,13.20
2023-05-12T04:25:07.651Z,13.10
2023-05-12T04:27:39.570Z,13.20
2023-05-12T04:30:13.141Z,13.20
2023-05-12T04:32:44.996Z,13.20
2023-05-12T04:35:17.729Z,13.10
2023-05-12T04:37:50.093Z,13.20
2023-05-12T04:40:22.266Z,13.20
2023-05-12T04:42:53.983Z,13.20
2023-05-12T04:45:26.993Z,13.20
2023-05-12T04:47:58.907Z,13.20
2023-05-12T04:50:30.828Z,13.20
2023-05-12T04:53:02.669Z,13.20
2023-05-12T04:55:34.577Z,13.20
2023-05-12T04:58:06.175Z,13.20
2023-05-12T05:00:39.441Z,13.30
2023-05-12T05:03:11.558Z,13.20
2023-05-12T05:05:43.555Z,13.20
2023-05-12T05:08:15.520Z,13.20
2023-05-12T05:10:47.351Z,13.20
2023-05-12T05:13:19.125Z,13.30
2023-05-12T05:15:56.976Z,13.30
2023-05-12T05:18:29.139Z,13.30
2023-05-12T05:21:01.329Z,13.30
2023-05-12T05:23:33.451Z,13.30
2023-05-12T05:26:05.333Z,13.30
2023-05-12T05:28:37.318Z,13.30
2023-05-12T05:31:14.424Z,13.30
2023-05-12T05:33:46.134Z,13.30
2023-05-12T05:36:18.020Z,13.30
2023-05-12T05:38:49.928Z,13.40
2023-05-12T05:41:22.735Z,13.20
2023-05-12T05:43:54.627Z,13.40
2023-05-12T05:46:27.820Z,13.40
2023-05-12T05:48:59.679Z,13.40
2023-05-12T05:51:31.579Z,13.40
2023-05-12T05:54:03.438Z,13.50
2023-05-12T05:56:35.979Z,13.50
2023-05-12T05:59:07.880Z,13.40
2023-05-12T06:01:40.915Z,13.50
2023-05-12T06:04:12.814Z,13.50
2023-05-12T06:06:45.195Z,13.50
2023-05-12T06:09:17.055Z,13.50
2023-05-12T06:11:48.990Z,13.50
2023-05-12T06:14:20.785Z,13.50
2023-05-12T06:16:54.025Z,13.60
2023-05-12T06:19:25.629Z,13.50
2023-05-12T06:21:58.016Z,13.50
2023-05-12T06:24:29.824Z,13.60
2023-05-12T06:27:01.821Z,13.60
2023-05-12T06:29:33.559Z,13.60
2023-05-12T06:32:07.019Z,13.60
2023-05-12T06:34:38.911Z,13.60
2023-05-12T06:37:10.899Z,13.60
2023-05-12T06:39:42.513Z,13.60
2023-05-12T06:42:14.466Z,13.70
2023-05-12T06:44:46.640Z,13.70
2023-05-12T06:47:20.338Z,13.70
2023-05-12T06:49:52.195Z,13.80
2023-05-12T06:52:24.777Z,13.80
2023-05-12T06:54:56.315Z,13.80
2023-05-12T06:57:28.165Z,13.90
2023-05-12T07:00:00.548Z,13.90
2023-05-12T07:02:33.687Z,13.90
2023-05-12T07:05:05.562Z,13.90
2023-05-12T07:07:37.396Z,14.00
2023-05-12T07:10:11.622Z,14.00
2023-05-12T07:12:43.719Z,14.00
2023-05-12T07:15:15.930Z,14.00
2023-05-12T07:17:49.181Z,14.10
2023-05-12T07:20:21.013Z,14.20
2023-05-12T07:22:54.671Z,14.20
2023-05-12T07:25:26.595Z,14.20
2023-05-12T07:27:58.472Z,14.30
2023-05-12T07:30:30.163Z,14.30
2023-05-12T07:33:03.477Z,14.40
2023-05-12T07:35:35.136Z,14.40
2023-05-12T07:38:09.430Z,14.50
2023-05-12T07:40:41.063Z,14.50
2023-05-12T07:43:13.054Z,14.60
2023-05-12T07:45:45.079Z,14.60
2023-05-12T07:48:18.048Z,14.70
2023-05-12T07:50:49.857Z,14.70
2023-05-12T07:53:22.020Z,14.80
2023-05-12T07:55:53.581Z,14.90
2023-05-12T07:58:25.477Z,14.90
2023-05-12T08:01:00.011Z,15.00
2023-05-12T08:03:33.011Z,15.00
2023-05-12T08:06:05.852Z,15.10
2023-05-12T08:08:37.668Z,15.20
2023-05-12T08:11:09.482Z,15.20
2023-05-12T08:13:42.235Z,15.30
2023-05-12T08:16:15.595Z,15.30
2023-05-12T08:18:48.574Z,15.40
2023-05-12T08:21:20.513Z,15.50
2023-05-12T08:23:53.835Z,15.50
2023-05-12T08:26:25.893Z,15.70
2023-05-12T08:28:57.691Z,15.70
2023-05-12T08:31:31.012Z,15.80
2023-05-12T08:34:10.253Z,15.90
2023-05-12T08:36:43.952Z,16.00
2023-05-12T08:39:16.413Z,16.10
2023-05-12T08:41:59.109Z,16.10
2023-05-12T08:44:33.746Z,16.20
2023-05-12T08:47:07.646Z,16.30
2023-05-12T08:49:43.721Z,16.40
2023-05-12T08:52:21.534Z,16.40
2023-05-12T08:54:56.616Z,16.50
2023-05-12T08:57:29.753Z,16.70
2023-05-12T09:00:05.309Z,16.70
2023-05-12T09:02:51.273Z,16.70
2023-05-12T09:05:27.865Z,16.80
2023-05-12T09:08:04.046Z,16.80
2023-05-12T09:10:37.703Z,16.90
2023-05-12T09:13:21.570Z,17.00
2023-05-12T09:15:56.543Z,17.30
2023-05-12T09:18:45.829Z,17.40
2023-05-12T09:21:19.859Z,17.50
2023-05-12T09:24:05.853Z,17.50
2023-05-12T09:26:49.588Z,17.70
2023-05-12T09:29:31.846Z,17.90
2023-05-12T09:32:08.140Z,18.20
2023-05-12T09:34:41.758Z,18.30
2023-05-12T09:37:15.640Z,18.50
2023-05-12T09:39:47.181Z,18.60
2023-05-12T09:42:18.847Z,18.60
2023-05-12T09:44:51.843Z,18.70
2023-05-12T09:47:23.737Z,18.70
2023-05-12T09:49:57.648Z,18.80
2023-05-12T09:52:32.855Z,18.80
2023-05-12T09:55:13.606Z,19.00
2023-05-12T09:57:47.718Z,19.00
2023-05-12T10:00:38.552Z,19.30
2023-05-12T10:03:17.736Z,19.30
2023-05-12T10:05:54.535Z,19.30
2023-05-12T10:08:35.184Z,19.40
2023-05-12T10:11:08.332Z,19.50
2023-05-12T10:13:41.432Z,19.60
2023-05-12T10:16:13.576Z,19.80
2023-05-12T10:18:47.305Z,19.80
2023-05-12T10:21:20.365Z,20.00
2023-05-12T10:23:55.170Z,19.90
2023-05-12T10:26:27.298Z,20.00
2023-05-12T10:29:00.551Z,20.10
2023-05-12T10:31:35.041Z,20.20
2023-05-12T10:34:07.866Z,20.20
2023-05-12T10:36:47.246Z,20.30
2023-05-12T10:39:20.771Z,20.30
2023-05-12T10:42:01.504Z,20.40
2023-05-12T10:44:33.482Z,20.40
2023-05-12T10:47:13.234Z,20.50
2023-05-12T10:49:46.374Z,20.70
2023-05-12T10:52:22.503Z,20.60
2023-05-12T10:55:04.595Z,20.70
2023-05-12T10:57:49.871Z,20.80
2023-05-12T11:00:28.948Z,21.00
2023-05-12T11:03:09.918Z,21.10
2023-05-12T11:05:42.664Z,21.10
2023-05-12T11:08:15.526Z,21.10
2023-05-12T11:10:49.249Z,21.20
2023-05-12T11:13:21.979Z,21.20
2023-05-12T11:15:54.920Z,21.20
2023-05-12T11:18:27.650Z,21.30
2023-05-12T11:20:59.515Z,21.40
2023-05-12T11:23:32.405Z,21.40
2023-05-12T11:26:07.290Z,21.50
2023-05-12T11:28:45.502Z,21.60
2023-05-12T11:31:24.719Z,21.80
2023-05-12T11:34:12.804Z,21.80
2023-05-12T11:36:47.237Z,21.90
2023-05-12T11:39:20.776Z,22.00
2023-05-12T11:42:05.440Z,22.00
2023-05-12T11:44:37.710Z,22.00
2023-05-12T11:47:18.726Z,22.00
2023-05-12T11:49:54.564Z,22.10
2023-05-12T11:52:28.565Z,22.10
2023-05-12T11:55:05.974Z,22.20
2023-05-12T11:57:39.654Z,22.20
2023-05-12T12:00:15.546Z,22.20
2023-05-12T12:02:47.551Z,22.20
2023-05-12T12:05:22.690Z,22.20
2023-05-12T12:08:04.877Z,22.40
2023-05-12T12:10:38.070Z,22.60
2023-05-12T12:13:11.068Z,22.80
2023-05-12T12:15:42.952Z,22.70
2023-05-12T12:18:15.719Z,22.60
2023-05-12T12:20:48.807Z,22.50
2023-05-12T12:23:20.793Z,22.40
2023-05-12T12:25:52.636Z,22.30
2023-05-12T12:28:25.700Z,22.20
2023-05-12T12:30:57.396Z,22.10
2023-05-12T12:33:29.243Z,22.10
2023-05-12T12:36:01.057Z,22.30
2023-05-12T12:38:33.138Z,22.50
2023-05-12T12:41:05.125Z,22.80
2023-05-12T12:43:38.386Z,23.00
2023-05-12T12:46:10.050Z,23.00
2023-05-12T12:48:42.283Z,22.90
2023-05-12T12:51:15.313Z,23.00
2023-05-12T12:53:47.230Z,23.10
2023-05-12T12:56:19.486Z,23.30
2023-05-12T12:58:52.522Z,23.50
2023-05-12T13:01:24.562Z,23.60
2023-05-12T13:03:56.416Z,23.80
2023-05-12T13:06:29.192Z,23.90
2023-05-12T13:09:01.548Z,23.80
2023-05-12T13:11:33.270Z,23.70
2023-05-12T13:14:06.882Z,23.40
2023-05-12T13:16:38.953Z,23.20
2023-05-12T13:19:11.197Z,23.40
2023-05-12T13:21:43.591Z,23.60
2023-05-12T13:24:15.369Z,23.80
2023-05-12T13:26:47.081Z,23.80
2023-05-12T13:29:20.417Z,23.50
2023-05-12T13:31:52.307Z,23.30
2023-05-12T13:34:23.999Z,23.20
2023-05-12T13:36:55.860Z,22.90
2023-05-12T13:39:27.699Z,22.80
2023-05-12T13:41:59.859Z,22.70
2023-05-12T13:44:33.275Z,22.70
2023-05-12T13:47:10.834Z,22.90
2023-05-12T13:49:42.654Z,23.20
2023-05-12T13:52:14.897Z,23.50
2023-05-12T13:54:47.203Z,23.70
2023-05-12T13:57:18.984Z,23.80
2023-05-12T13:59:54.902Z,23.60
2023-05-12T14:02:27.063Z,23.40
2023-05-12T14:04:59.825Z,23.20
2023-05-12T14:07:32.131Z,23.00
2023-05-12T14:10:08.141Z,23.00
2023-05-12T14:12:41.232Z,22.90
2023-05-12T14:15:26.561Z,23.10
2023-05-12T14:18:04.886Z,23.30
2023-05-12T14:20:37.016Z,23.60
2023-05-12T14:23:09.085Z,23.90
2023-05-12T14:25:41.170Z,23.90
2023-05-12T14:28:13.379Z,24.00
2023-05-12T14:30:48.691Z,24.00
2023-05-12T14:33:20.632Z,23.80
2023-05-12T14:36:03.212Z,23.70
2023-05-12T14:38:39.419Z,23.60
2023-05-12T14:41:11.546Z,23.40
2023-05-12T14:43:43.613Z,23.20
2023-05-12T14:46:17.582Z,23.20
2023-05-12T14:48:49.860Z,23.10
2023-05-12T14:51:21.970Z,23.40
2023-05-12T14:53:54.291Z,23.60
2023-05-12T14:56:26.465Z,23.80
2023-05-12T14:58:58.667Z,24.00
2023-05-12T15:01:32.170Z,24.10
2023-05-12T15:04:04.498Z,24.30
2023-05-12T15:06:38.110Z,24.40
2023-05-12T15:09:10.912Z,24.30
2023-05-12T15:11:44.515Z,24.40
2023-05-12T15:14:16.374Z,24.40
2023-05-12T15:16:49.444Z,24.20
2023-05-12T15:19:21.606Z,24.00
2023-05-12T15:21:53.561Z,23.90
2023-05-12T15:24:25.583Z,24.10
2023-05-12T15:26:57.276Z,24.10
2023-05-12T15:29:29.165Z,24.10
2023-05-12T15:32:03.856Z,24.00
2023-05-12T15:34:35.760Z,23.80
2023-05-12T15:37:07.702Z,23.70
2023-05-12T15:39:39.590Z,23.40
2023-05-12T15:42:12.627Z,23.30
2023-05-12T15:44:46.667Z,23.20
2023-05-12T15:47:19.906Z,23.20
2023-05-12T15:49:53.421Z,23.00
2023-05-12T15:52:25.232Z,23.00
2023-05-12T15:54:57.288Z,23.20
2023-05-12T15:57:29.201Z,23.20
2023-05-12T16:00:05.382Z,23.40
2023-05-12T16:02:38.812Z,23.70
2023-05-12T16:05:12.230Z,23.80
2023-05-12T16:07:44.148Z,24.00
2023-05-12T16:10:15.918Z,24.10
2023-05-12T16:12:47.993Z,24.00
2023-05-12T16:15:20.268Z,23.80
2023-05-12T16:17:53.916Z,23.60
2023-05-12T16:20:26.025Z,23.50
2023-05-12T16:22:58.249Z,23.40
2023-05-12T16:25:29.913Z,23.30
2023-05-12T16:28:01.872Z,23.10
2023-05-12T16:30:33.991Z,23.10
2023-05-12T16:33:08.100Z,23.10
2023-05-12T16:35:39.925Z,23.10
2023-05-12T16:38:11.675Z,23.10
2023-05-12T16:40:43.663Z,23.10
2023-05-12T16:43:15.770Z,23.10
2023-05-12T16:45:48.129Z,23.20
2023-05-12T16:48:21.422Z,23.40
2023-05-12T16:51:03.430Z,23.40
2023-05-12T16:53:35.389Z,23.40
2023-05-12T16:56:07.372Z,23.50
2023-05-12T16:58:40.642Z,23.50
2023-05-12T17:01:12.871Z,23.60
2023-05-12T17:03:46.107Z,23.50
2023-05-12T17:06:17.912Z,23.40
2023-05-12T17:08:49.945Z,23.20
2023-05-12T17:11:21.883Z,23.20
2023-05-12T17:13:54.010Z,23.20
2023-05-12T17:16:25.702Z,23.20
2023-05-12T17:21:33.905Z,23.20
2023-05-12T17:24:06.002Z,23.20
2023-05-12T17:26:37.812Z,23.20
2023-05-12T17:29:09.695Z,23.00
2023-05-12T17:31:42.192Z,23.00
2023-05-12T17:34:15.543Z,23.00
2023-05-12T17:36:47.297Z,22.90
2023-05-12T17:39:19.369Z,22.80
2023-05-12T17:41:51.124Z,22.70
2023-05-12T17:44:23.049Z,22.70
2023-05-12T17:46:58.862Z,22.60
2023-05-12T17:49:32.312Z,22.60
2023-05-12T17:52:04.334Z,22.60
2023-05-12T17:54:36.470Z,22.40
2023-05-12T17:57:08.934Z,22.40
2023-05-12T17:59:40.860Z,22.20
2023-05-12T18:02:13.352Z,22.20
2023-05-12T18:04:46.834Z,22.10
2023-05-12T18:07:18.461Z,22.00
2023-05-12T18:09:50.489Z,22.00
2023-05-12T18:12:23.306Z,21.90
2023-05-12T18:14:55.301Z,21.90
2023-05-12T18:17:27.694Z,21.70
2023-05-12T18:20:01.012Z,21.70
2023-05-12T18:22:32.992Z,21.60
2023-05-12T18:25:05.132Z,21.50
2023-05-12T18:27:37.090Z,21.40
2023-05-12T18:30:10.901Z,21.40
2023-05-12T18:32:43.456Z,21.30
2023-05-12T18:35:17.428Z,21.20
2023-05-12T18:37:49.524Z,21.20
2023-05-12T18:40:21.875Z,21.10
2023-05-12T18:42:53.575Z,20.90
2023-05-12T18:45:25.569Z,21.00
2023-05-12T18:47:57.301Z,20.90
2023-05-12T18:50:30.927Z,20.80
2023-05-12T18:53:02.818Z,20.80
2023-05-12T18:55:34.853Z,20.70
2023-05-12T18:58:06.643Z,20.60
2023-05-12T19:00:38.763Z,20.50
2023-05-12T19:03:10.607Z,20.50
2023-05-12T19:05:46.291Z,20.40
2023-05-12T19:08:19.874Z,20.30
2023-05-12T19:10:53.041Z,20.30
2023-05-12T19:13:25.094Z,20.20
2023-05-12T19:15:57.109Z,20.10
2023-05-12T19:18:29.146Z,20.10
2023-05-12T19:21:02.570Z,20.00
2023-05-12T19:23:35.553Z,19.90
2023-05-12T19:26:08.959Z,19.80
2023-05-12T19:28:40.985Z,19.70
2023-05-12T19:31:13.020Z,19.60
2023-05-12T19:33:44.924Z,19.60
2023-05-12T19:36:18.186Z,19.50
2023-05-12T19:38:50.120Z,19.50
2023-05-12T19:41:22.085Z,19.40
2023-05-12T19:43:53.936Z,19.20
2023-05-12T19:46:26.328Z,19.20
2023-05-12T19:48:58.406Z,19.10
2023-05-12T19:51:31.984Z,19.00
2023-05-12T19:54:06.255Z,19.00
2023-05-12T19:56:38.252Z,19.00
2023-05-12T19:59:10.131Z,18.90
2023-05-12T20:01:42.239Z,18.80
2023-05-12T20:04:14.114Z,18.70
2023-05-12T20:06:48.200Z,18.70
2023-05-12T20:09:21.925Z,18.70
2023-05-12T20:11:53.777Z,18.60
2023-05-12T20:14:25.537Z,18.60
2023-05-12T20:16:59.015Z,18.40
2023-05-12T20:19:31.282Z,18.40
2023-05-12T20:22:04.377Z,18.40
2023-05-12T20:24:36.333Z,18.40
2023-05-12T20:27:08.734Z,18.30
2023-05-12T20:29:40.346Z,18.30
2023-05-12T20:32:14.355Z,18.30
2023-05-12T20:34:46.176Z,18.20
2023-05-12T20:37:19.133Z,18.10
2023-05-12T20:39:50.986Z,18.10
2023-05-12T20:42:23.935Z,18.00
2023-05-12T20:44:55.859Z,18.00
2023-05-12T20:47:27.893Z,17.90
2023-05-12T20:50:05.171Z,17.80
2023-05-12T20:52:40.061Z,17.80
2023-05-12T20:55:13.251Z,17.70
2023-05-12T20:57:45.169Z,17.70
2023-05-12T21:00:19.542Z,17.60
2023-05-12T21:02:52.275Z,17.60
2023-05-12T21:05:24.407Z,17.50
2023-05-12T21:07:57.359Z,17.50
2023-05-12T21:10:29.262Z,17.40
2023-05-12T21:13:01.061Z,17.40
2023-05-12T21:15:34.270Z,17.30
2023-05-12T21:18:06.228Z,17.20
2023-05-12T21:20:37.924Z,17.20
2023-05-12T21:23:12.445Z,17.20
2023-05-12T21:25:44.480Z,17.00
2023-05-12T21:28:16.340Z,17.00
2023-05-12T21:30:48.151Z,17.00
2023-05-12T21:33:20.086Z,17.00
2023-05-12T21:35:52.803Z,16.90
2023-05-12T21:38:26.597Z,16.90
2023-05-12T21:40:58.417Z,16.80
2023-05-12T21:43:30.291Z,16.80
2023-05-12T21:46:06.792Z,16.70
2023-05-12T21:48:39.203Z,16.70
2023-05-12T21:51:10.849Z,16.60
2023-05-12T21:53:43.865Z,16.60
2023-05-12T21:56:15.816Z,16.60
2023-05-12T21:58:48.031Z,16.40
2023-05-12T22:01:20.186Z,16.50
2023-05-12T22:03:52.032Z,16.40
2023-05-12T22:06:23.598Z,16.40
2023-05-12T22:08:56.585Z,16.30
2023-05-12T22:11:29.004Z,16.20
2023-05-12T22:14:01.065Z,16.10
2023-05-12T22:16:41.136Z,16.20
2023-05-12T22:19:13.779Z,16.20
2023-05-12T22:21:45.654Z,16.10
2023-05-12T22:24:18.661Z,16.00
2023-05-12T22:26:50.487Z,16.00
2023-05-12T22:29:22.550Z,16.00
2023-05-12T22:31:54.309Z,16.00
2023-05-12T22:34:26.147Z,15.90
2023-05-12T22:36:58.011Z,15.90
2023-05-12T22:39:31.128Z,15.90
2023-05-12T22:42:03.254Z,15.80
2023-05-12T22:44:35.374Z,15.70
2023-05-12T22:47:07.460Z,15.70
2023-05-12T22:49:39.655Z,15.80
2023-05-12T22:52:11.659Z,15.70
2023-05-12T22:54:44.875Z,15.70
2023-05-12T22:57:16.709Z,15.70
2023-05-12T22:59:48.757Z,15.60
2023-05-12T23:02:20.530Z,15.70
2023-05-12T23:04:52.466Z,15.50
2023-05-12T23:07:24.355Z,15.50
2023-05-12T23:09:57.623Z,15.50
2023-05-12T23:12:29.416Z,15.50
2023-05-12T23:15:01.282Z,15.40
2023-05-12T23:17:33.260Z,15.40
2023-05-12T23:20:05.565Z,15.30
2023-05-12T23:22:37.131Z,15.30
2023-05-12T23:25:12.406Z,15.30
2023-05-12T23:27:44.283Z,15.30
2023-05-12T23:30:17.078Z,15.30
2023-05-12T23:32:50.270Z,15.30
2023-05-12T23:35:22.480Z,15.30
2023-05-12T23:37:54.076Z,15.10
2023-05-12T23:40:27.189Z,15.10
2023-05-12T23:42:59.004Z,15.10
2023-05-12T23:45:30.871Z,15.10
2023-05-12T23:48:02.963Z,15.10
2023-05-12T23:50:35.572Z,15.00
2023-05-12T23:53:07.145Z,15.00
2023-05-12T23:55:41.897Z,14.90
2023-05-12T23:58:13.761Z,14.90
